sensor_id;sensor_type;location;lat;lon;timestamp;P1;durP1;ratioP1;P2;durP2;ratioP2
66663;SDS011;59683;51.428;-1.994;2023-05-10T05:43:25;74.67;;;18.40;;
66663;SDS011;59683;51.428;-1.994;2023-05-10T06:06:11;66.83;;;20.33;;
66663;SDS011;59683;51.428;-1.994;2023-05-10T06:08:37;58.03;;;20.20;;
66663;SDS011;59683;51.428;-1.994;2023-05-10T06:11:03;56.53;;;17.80;;
66663;SDS011;59683;51.428;-1.994;2023-05-10T06:13:33;47.00;;;15.77;;
66663;SDS011;59683;51.428;-1.994;2023-05-10T06:16:00;45.47;;;16.33;;
66663;SDS011;59683;51.428;-1.994;2023-05-10T06:18:27;39.00;;;14.20;;
66663;SDS011;59683;51.428;-1.994;2023-05-10T06:20:52;37.63;;;13.97;;
66663;SDS011;59683;51.428;-1.994;2023-05-10T06:23:17;29.60;;;13.53;;
66663;SDS011;59683;51.428;-1.994;2023-05-10T06:25:43;36.63;;;12.97;;
66663;SDS011;59683;51.428;-1.994;2023-05-10T06:28:10;19.07;;;9.90;;
66663;SDS011;59683;51.428;-1.994;2023-05-10T06:30:36;24.53;;;11.23;;
66663;SDS011;59683;51.428;-1.994;2023-05-10T06:33:02;25.70;;;10.50;;
66663;SDS011;59683;51.428;-1.994;2023-05-10T06:35:28;25.00;;;10.80;;
66663;SDS011;59683;51.428;-1.994;2023-05-10T06:37:54;24.03;;;8.70;;
66663;SDS011;59683;51.428;-1.994;2023-05-10T06:40:20;25.03;;;9.63;;
66663;SDS011;59683;51.428;-1.994;2023-05-10T06:42:46;23.00;;;8.87;;
66663;SDS011;59683;51.428;-1.994;2023-05-10T06:45:12;28.57;;;9.80;;
66663;SDS011;59683;51.428;-1.994;2023-05-10T06:47:39;28.47;;;10.47;;
66663;SDS011;59683;51.428;-1.994;2023-05-10T06:50:06;34.73;;;10.60;;
66663;SDS011;59683;51.428;-1.994;2023-05-10T06:52:34;26.80;;;10.07;;
66663;SDS011;59683;51.428;-1.994;2023-05-10T06:55:00;25.17;;;9.77;;
66663;SDS011;59683;51.428;-1.994;2023-05-10T06:57:26;23.43;;;9.33;;
66663;SDS011;59683;51.428;-1.994;2023-05-10T06:59:52;22.67;;;9.23;;
66663;SDS011;59683;51.428;-1.994;2023-05-10T07:02:20;23.97;;;9.60;;
66663;SDS011;59683;51.428;-1.994;2023-05-10T07:04:46;22.77;;;7.70;;
66663;SDS011;59683;51.428;-1.994;2023-05-10T07:07:12;23.13;;;8.23;;
66663;SDS011;59683;51.428;-1.994;2023-05-10T07:09:38;18.07;;;7.03;;
66663;SDS011;59683;51.428;-1.994;2023-05-10T07:12:04;23.37;;;7.07;;
66663;SDS011;59683;51.428;-1.994;2023-05-10T07:14:29;21.07;;;7.03;;
66663;SDS011;59683;51.428;-1.994;2023-05-10T07:16:54;17.17;;;6.83;;
66663;SDS011;59683;51.428;-1.994;2023-05-10T07:19:20;15.55;;;6.13;;
66663;SDS011;59683;51.428;-1.994;2023-05-10T07:21:45;19.35;;;5.75;;
66663;SDS011;59683;51.428;-1.994;2023-05-10T07:24:11;22.85;;;6.57;;
66663;SDS011;59683;51.428;-1.994;2023-05-10T07:40:04;23.00;;;5.80;;
66663;SDS011;59683;51.428;-1.994;2023-05-10T07:42:41;14.63;;;5.23;;
66663;SDS011;59683;51.428;-1.994;2023-05-10T07:45:24;20.23;;;5.00;;
66663;SDS011;59683;51.428;-1.994;2023-05-10T07:47:52;13.17;;;3.50;;
66663;SDS011;59683;51.428;-1.994;2023-05-10T07:50:17;18.80;;;4.50;;
66663;SDS011;59683;51.428;-1.994;2023-05-10T07:52:45;14.83;;;3.77;;
66663;SDS011;59683;51.428;-1.994;2023-05-10T07:58:41;15.60;;;3.33;;
66663;SDS011;59683;51.428;-1.994;2023-05-10T08:01:09;11.53;;;3.17;;
66663;SDS011;59683;51.428;-1.994;2023-05-10T08:13:20;15.67;;;3.30;;
66663;SDS011;59683;51.428;-1.994;2023-05-10T08:16:08;22.30;;;3.93;;
66663;SDS011;59683;51.428;-1.994;2023-05-10T08:18:39;15.37;;;3.20;;
66663;SDS011;59683;51.428;-1.994;2023-05-10T08:21:27;23.97;;;5.13;;
66663;SDS011;59683;51.428;-1.994;2023-05-10T08:23:56;15.13;;;2.97;;
66663;SDS011;59683;51.428;-1.994;2023-05-10T08:26:47;14.87;;;3.03;;
66663;SDS011;59683;51.428;-1.994;2023-05-10T08:29:13;18.87;;;3.10;;
66663;SDS011;59683;51.428;-1.994;2023-05-10T08:31:39;13.80;;;2.67;;
66663;SDS011;59683;51.428;-1.994;2023-05-10T08:34:23;16.53;;;2.83;;
66663;SDS011;59683;51.428;-1.994;2023-05-10T08:37:01;14.20;;;3.00;;
66663;SDS011;59683;51.428;-1.994;2023-05-10T08:39:42;14.17;;;2.80;;
66663;SDS011;59683;51.428;-1.994;2023-05-10T08:42:07;16.40;;;3.23;;
66663;SDS011;59683;51.428;-1.994;2023-05-10T08:44:44;16.52;;;2.65;;
66663;SDS011;59683;51.428;-1.994;2023-05-10T08:47:24;15.73;;;2.77;;
66663;SDS011;59683;51.428;-1.994;2023-05-10T08:56:11;14.50;;;3.87;;
66663;SDS011;59683;51.428;-1.994;2023-05-10T08:59:39;10.43;;;2.60;;
66663;SDS011;59683;51.428;-1.994;2023-05-10T09:03:12;17.67;;;4.00;;
66663;SDS011;59683;51.428;-1.994;2023-05-10T09:08:41;11.07;;;2.63;;
66663;SDS011;59683;51.428;-1.994;2023-05-10T09:11:08;11.43;;;3.53;;
66663;SDS011;59683;51.428;-1.994;2023-05-10T09:13:35;14.13;;;2.73;;
66663;SDS011;59683;51.428;-1.994;2023-05-10T09:16:04;13.73;;;3.40;;
66663;SDS011;59683;51.428;-1.994;2023-05-10T09:18:41;11.13;;;2.97;;
66663;SDS011;59683;51.428;-1.994;2023-05-10T09:21:07;10.07;;;3.00;;
66663;SDS011;59683;51.428;-1.994;2023-05-10T09:23:34;12.73;;;3.43;;
66663;SDS011;59683;51.428;-1.994;2023-05-10T09:26:04;14.53;;;3.67;;
66663;SDS011;59683;51.428;-1.994;2023-05-10T09:31:27;10.70;;;3.00;;
66663;SDS011;59683;51.428;-1.994;2023-05-10T09:34:16;13.83;;;3.00;;
66663;SDS011;59683;51.428;-1.994;2023-05-10T09:36:53;14.63;;;4.87;;
66663;SDS011;59683;51.428;-1.994;2023-05-10T09:39:20;8.27;;;3.27;;
66663;SDS011;59683;51.428;-1.994;2023-05-10T09:41:45;6.87;;;2.67;;
66663;SDS011;59683;51.428;-1.994;2023-05-10T09:44:12;10.57;;;3.33;;
66663;SDS011;59683;51.428;-1.994;2023-05-10T09:46:42;12.10;;;3.53;;
66663;SDS011;59683;51.428;-1.994;2023-05-10T09:49:08;8.57;;;3.20;;
66663;SDS011;59683;51.428;-1.994;2023-05-10T09:51:34;11.27;;;3.60;;
66663;SDS011;59683;51.428;-1.994;2023-05-10T09:54:13;11.87;;;3.80;;
66663;SDS011;59683;51.428;-1.994;2023-05-10T09:56:40;11.60;;;3.50;;
66663;SDS011;59683;51.428;-1.994;2023-05-10T09:59:06;18.57;;;4.30;;
66663;SDS011;59683;51.428;-1.994;2023-05-10T10:01:33;21.90;;;4.20;;
66663;SDS011;59683;51.428;-1.994;2023-05-10T10:03:59;11.57;;;3.03;;
66663;SDS011;59683;51.428;-1.994;2023-05-10T10:06:28;12.97;;;3.20;;
66663;SDS011;59683;51.428;-1.994;2023-05-10T10:08:54;11.97;;;3.30;;
66663;SDS011;59683;51.428;-1.994;2023-05-10T10:11:20;11.40;;;3.40;;
66663;SDS011;59683;51.428;-1.994;2023-05-10T10:13:45;9.83;;;3.10;;
66663;SDS011;59683;51.428;-1.994;2023-05-10T10:16:11;18.63;;;3.83;;
66663;SDS011;59683;51.428;-1.994;2023-05-10T10:18:36;12.43;;;2.47;;
66663;SDS011;59683;51.428;-1.994;2023-05-10T10:21:05;10.23;;;2.70;;
66663;SDS011;59683;51.428;-1.994;2023-05-10T10:23:36;9.52;;;1.98;;
66663;SDS011;59683;51.428;-1.994;2023-05-10T10:26:02;9.33;;;2.30;;
66663;SDS011;59683;51.428;-1.994;2023-05-10T10:34:11;12.17;;;2.97;;
66663;SDS011;59683;51.428;-1.994;2023-05-10T10:36:50;10.60;;;2.65;;
66663;SDS011;59683;51.428;-1.994;2023-05-10T10:39:15;10.53;;;2.33;;
66663;SDS011;59683;51.428;-1.994;2023-05-10T10:41:50;14.07;;;3.17;;
66663;SDS011;59683;51.428;-1.994;2023-05-10T10:47:07;22.03;;;5.00;;
66663;SDS011;59683;51.428;-1.994;2023-05-10T10:52:37;15.17;;;3.07;;
66663;SDS011;59683;51.428;-1.994;2023-05-10T10:55:13;15.87;;;2.50;;
66663;SDS011;59683;51.428;-1.994;2023-05-10T10:57:43;16.90;;;2.73;;
66663;SDS011;59683;51.428;-1.994;2023-05-10T11:00:43;19.87;;;3.70;;
66663;SDS011;59683;51.428;-1.994;2023-05-10T11:03:11;17.57;;;4.13;;
